Time;durP1;ratioP1;P1;durP2;ratioP2;P2;SDS_P1;SDS_P2;PMS_P1;PMS_P2;Temp;Humidity;BMP_temperature;BMP_pressure;BME280_temperature;BME280_humidity;BME280_pressure;Samples;Min_cycle;Max_cycle;Signal;HPM_P1;HPM_P2
2024/03/01 00:01:48;;;;;;;26.40;16.43;;;4.20;99.90;;;;;;5061883;28;20188;-82
2024/03/01 00:04:13;;;;;;;26.23;15.57;;;4.10;99.90;;;;;;5057434;28;20307;-82
2024/03/01 00:06:39;;;;;;;27.77;16.73;;;4.00;99.90;;;;;;5061486;28;20213;-82
2024/03/01 00:09:05;;;;;;;23.60;15.83;;;4.00;99.90;;;;;;5079397;28;20199;-82
2024/03/01 00:11:31;;;;;;;26.67;15.87;;;4.10;99.90;;;;;;5079678;28;20639;-82
2024/03/01 00:13:57;;;;;;;27.50;16.23;;;4.20;99.90;;;;;;5061471;28;20599;-82
2024/03/01 00:16:23;;;;;;;28.20;15.87;;;4.10;99.90;;;;;;5061673;28;20185;-80
2024/03/01 00:18:49;;;;;;;26.43;15.90;;;4.10;99.90;;;;;;5061273;28;20539;-82
2024/03/01 00:21:17;;;;;;;28.20;16.47;;;4.10;99.90;;;;;;5061641;28;20232;-83
2024/03/01 00:23:44;;;;;;;28.40;16.03;;;4.10;99.90;;;;;;5061250;28;20255;-82
2024/03/01 00:26:10;;;;;;;29.20;15.87;;;4.00;99.90;;;;;;5061425;28;20276;-82
2024/03/01 00:28:36;;;;;;;28.53;16.47;;;4.00;99.90;;;;;;5057396;28;20189;-83
2024/03/01 00:31:02;;;;;;;25.27;15.30;;;4.00;99.90;;;;;;5076503;28;20189;-82
2024/03/01 00:33:28;;;;;;;27.00;16.50;;;3.90;99.90;;;;;;5054138;28;20242;-82
2024/03/01 00:35:54;;;;;;;25.73;15.87;;;3.90;99.90;;;;;;5058219;28;20189;-83
2024/03/01 00:38:20;;;;;;;28.37;16.23;;;3.90;99.90;;;;;;5076103;28;20333;-82
2024/03/01 00:40:46;;;;;;;25.87;16.03;;;4.00;99.90;;;;;;5050094;28;20586;-82
2024/03/01 00:43:12;;;;;;;24.53;15.53;;;4.00;99.90;;;;;;5057804;28;20676;-81
2024/03/01 00:45:38;;;;;;;28.50;15.77;;;3.90;99.90;;;;;;5076020;28;20185;-82
2024/03/01 00:48:12;;;;;;;26.03;15.83;;;3.90;99.90;;;;;;5057552;28;20196;-82
2024/03/01 00:50:39;;;;;;;29.33;15.40;;;3.90;99.90;;;;;;5076098;28;20191;-82
2024/03/01 00:53:06;;;;;;;28.03;15.97;;;3.80;99.90;;;;;;5057891;28;20624;-83
2024/03/01 00:55:35;;;;;;;29.33;17.07;;;3.80;99.90;;;;;;5057882;28;20590;-82
2024/03/01 00:58:02;;;;;;;27.53;16.20;;;3.70;99.90;;;;;;5057618;28;20193;-82
2024/03/01 01:00:28;;;;;;;27.07;16.47;;;3.60;99.90;;;;;;5057681;28;20238;-80
2024/03/01 01:02:54;;;;;;;27.97;15.73;;;3.70;99.90;;;;;;5071370;28;20185;-83
2024/03/01 01:05:22;;;;;;;26.50;16.17;;;3.70;99.90;;;;;;5075470;28;20648;-81
2024/03/01 01:07:48;;;;;;;25.67;15.87;;;3.80;99.90;;;;;;5057294;28;20208;-82
2024/03/01 01:10:15;;;;;;;29.53;16.17;;;3.70;99.90;;;;;;5057566;28;20322;-82
2024/03/01 01:12:40;;;;;;;24.97;16.13;;;3.60;99.90;;;;;;5057326;28;20203;-81
2024/03/01 01:15:07;;;;;;;27.10;15.70;;;3.60;99.90;;;;;;5067044;28;20230;-81
2024/03/01 01:17:32;;;;;;;26.23;15.17;;;3.60;99.90;;;;;;5057017;28;20193;-81
2024/03/01 01:19:59;;;;;;;27.20;15.70;;;3.70;99.90;;;;;;5075008;28;20223;-81
2024/03/01 01:22:26;;;;;;;26.07;15.83;;;3.60;99.90;;;;;;5057323;28;20189;-82
2024/03/01 01:24:52;;;;;;;27.57;15.70;;;3.60;99.90;;;;;;5057193;28;20221;-82
2024/03/01 01:27:18;;;;;;;25.73;15.07;;;3.30;99.90;;;;;;5057317;28;20185;-81
2024/03/01 01:29:44;;;;;;;22.57;15.10;;;3.30;99.90;;;;;;5072815;28;20188;-82
2024/03/01 01:32:10;;;;;;;27.53;16.57;;;3.20;99.90;;;;;;5049533;28;20234;-81
2024/03/01 01:34:35;;;;;;;25.63;15.67;;;3.30;99.90;;;;;;5073193;28;20608;-81
2024/03/01 01:37:03;;;;;;;24.00;15.10;;;3.30;99.90;;;;;;5056858;28;20193;-81
2024/03/01 01:39:29;;;;;;;25.07;13.90;;;3.30;99.90;;;;;;5055592;28;20185;-82
2024/03/01 01:41:55;;;;;;;25.87;15.20;;;3.20;99.90;;;;;;5056971;28;20192;-81
2024/03/01 01:44:21;;;;;;;27.63;15.80;;;3.30;99.90;;;;;;5056494;28;20617;-82
2024/03/01 01:46:51;;;;;;;29.53;16.30;;;3.30;99.90;;;;;;5056653;28;20648;-81
2024/03/01 01:49:18;;;;;;;27.63;15.70;;;3.20;99.90;;;;;;5055964;28;20220;-82
2024/03/01 01:51:45;;;;;;;27.97;16.43;;;3.10;99.90;;;;;;5056768;28;20188;-83
2024/03/01 01:54:12;;;;;;;28.07;16.67;;;3.10;99.90;;;;;;5074656;28;20185;-81
2024/03/01 01:56:38;;;;;;;29.53;15.17;;;3.10;99.90;;;;;;5056338;28;20235;-81
2024/03/01 01:59:04;;;;;;;25.60;15.77;;;3.10;99.90;;;;;;5056366;28;20196;-82
2024/03/01 02:01:30;;;;;;;26.00;15.47;;;3.10;99.90;;;;;;5056277;28;20616;-81
2024/03/01 02:03:56;;;;;;;29.17;16.47;;;3.10;99.90;;;;;;5052343;28;20678;-81
2024/03/01 02:06:23;;;;;;;26.93;15.20;;;3.10;99.90;;;;;;5056265;28;20532;-82
2024/03/01 02:08:49;;;;;;;29.73;16.53;;;3.10;99.90;;;;;;5074235;28;20181;-82
2024/03/01 02:11:14;;;;;;;28.27;15.13;;;3.10;99.90;;;;;;5056273;28;20544;-81
2024/03/01 02:13:40;;;;;;;29.40;16.03;;;2.90;99.90;;;;;;5052679;28;20727;-82
2024/03/01 02:16:06;;;;;;;27.40;16.23;;;2.90;99.90;;;;;;5052742;28;20189;-81
2024/03/01 02:18:35;;;;;;;32.60;17.00;;;2.90;99.90;;;;;;5052325;28;20189;-82
2024/03/01 02:21:10;;;;;;;27.37;15.67;;;2.90;99.90;;;;;;5054003;28;20260;-82
2024/03/01 02:23:37;;;;;;;27.83;16.80;;;2.70;99.90;;;;;;5052571;28;20656;-81
2024/03/01 02:26:04;;;;;;;27.43;16.47;;;2.60;99.90;;;;;;5053839;28;20186;-82
2024/03/01 02:28:30;;;;;;;27.50;16.03;;;2.60;99.90;;;;;;5052252;28;20209;-81
2024/03/01 02:30:56;;;;;;;24.87;15.37;;;2.60;99.90;;;;;;5052645;28;20231;-82
2024/03/01 02:33:23;;;;;;;28.37;16.60;;;2.60;99.90;;;;;;5049793;28;20182;-81
2024/03/01 02:35:49;;;;;;;27.57;17.03;;;2.60;99.90;;;;;;5052513;28;20192;-82
2024/03/01 02:38:15;;;;;;;25.73;15.57;;;2.70;99.90;;;;;;5052535;28;20177;-81
2024/03/01 02:40:42;;;;;;;28.33;16.53;;;2.70;99.90;;;;;;5052312;28;20243;-82
2024/03/01 02:43:08;;;;;;;29.97;17.73;;;2.70;99.90;;;;;;5052363;28;20278;-82
2024/03/01 02:45:37;;;;;;;30.30;17.80;;;2.70;99.90;;;;;;5052337;28;20621;-82
2024/03/01 02:48:06;;;;;;;26.93;16.47;;;2.70;99.90;;;;;;5051948;28;20190;-82
2024/03/01 02:50:32;;;;;;;27.30;15.47;;;2.70;99.90;;;;;;5051453;28;20189;-82
2024/03/01 02:52:58;;;;;;;26.50;16.07;;;2.60;99.90;;;;;;5052404;28;20190;-83
2024/03/01 02:55:23;;;;;;;28.87;16.50;;;2.70;99.90;;;;;;5052443;28;20193;-83
2024/03/01 02:57:51;;;;;;;28.20;17.23;;;2.50;99.90;;;;;;5052006;28;20528;-81
2024/03/01 03:00:19;;;;;;;28.33;16.63;;;2.60;99.90;;;;;;5052215;28;20639;-82
2024/03/01 03:02:44;;;;;;;32.13;17.33;;;2.70;99.90;;;;;;5048205;28;20216;-82
2024/03/01 03:05:11;;;;;;;32.50;17.60;;;2.70;99.90;;;;;;5052067;28;20228;-83
2024/03/01 03:07:40;;;;;;;26.40;16.43;;;2.70;99.90;;;;;;5051898;28;20318;-81
2024/03/01 03:10:06;;;;;;;24.07;15.33;;;2.60;99.90;;;;;;5052117;28;20235;-82
2024/03/01 03:12:33;;;;;;;24.43;15.20;;;2.50;99.90;;;;;;5052176;28;20190;-82
2024/03/01 03:15:07;;;;;;;26.10;15.67;;;2.40;99.90;;;;;;5071466;28;20563;-82
2024/03/01 03:17:36;;;;;;;26.57;16.80;;;2.40;99.90;;;;;;5055264;28;20309;-83
2024/03/01 03:20:09;;;;;;;26.00;16.20;;;2.30;99.90;;;;;;5055084;28;20188;-80
2024/03/01 03:22:39;;;;;;;29.73;17.20;;;2.30;99.90;;;;;;5055231;28;20239;-81
2024/03/01 03:25:05;;;;;;;24.90;15.10;;;2.30;99.90;;;;;;5055257;28;20217;-81
2024/03/01 03:27:32;;;;;;;31.43;17.57;;;2.20;99.90;;;;;;5073034;28;20185;-82
2024/03/01 03:29:58;;;;;;;27.17;16.40;;;2.20;99.90;;;;;;5055417;28;20275;-82
2024/03/01 03:32:24;;;;;;;26.27;15.30;;;2.20;99.90;;;;;;5051451;28;20532;-81
2024/03/01 03:34:49;;;;;;;27.03;16.40;;;2.20;99.90;;;;;;5054999;28;20276;-82
2024/03/01 03:37:15;;;;;;;28.73;17.23;;;2.30;99.90;;;;;;5055179;28;20269;-82
2024/03/01 03:39:41;;;;;;;31.23;17.53;;;2.40;99.90;;;;;;5046722;28;20264;-82
2024/03/01 03:42:07;;;;;;;28.33;16.87;;;2.40;99.90;;;;;;5055441;28;20281;-82
2024/03/01 03:44:33;;;;;;;27.63;15.80;;;2.40;99.90;;;;;;5055026;28;20610;-82
2024/03/01 03:46:58;;;;;;;29.03;16.33;;;2.30;99.90;;;;;;5055192;28;20189;-82
2024/03/01 03:49:24;;;;;;;28.40;16.87;;;2.20;99.90;;;;;;5054717;28;20276;-83
2024/03/01 03:51:50;;;;;;;30.23;17.60;;;2.20;99.90;;;;;;5055020;28;20181;-82
2024/03/01 03:54:18;;;;;;;28.37;16.83;;;2.20;99.90;;;;;;5453641;22;20775;-82
2024/03/01 03:56:44;;;;;;;29.83;17.23;;;2.10;99.90;;;;;;5012902;28;20179;-83
2024/03/01 03:59:09;;;;;;;30.03;17.73;;;2.10;99.90;;;;;;5011563;28;20691;-83
2024/03/01 04:01:36;;;;;;;28.87;17.13;;;2.00;99.90;;;;;;5004737;28;20271;-82
2024/03/01 04:04:02;;;;;;;27.70;15.27;;;2.00;99.90;;;;;;5016736;28;20258;-84
2024/03/01 04:06:28;;;;;;;31.63;17.07;;;2.20;99.90;;;;;;5016472;28;20188;-83
2024/03/01 04:08:55;;;;;;;25.23;15.50;;;2.20;99.90;;;;;;5016680;28;20187;-83
2024/03/01 04:11:21;;;;;;;23.87;15.00;;;2.30;99.90;;;;;;5015483;28;20191;-82
2024/03/01 04:13:47;;;;;;;23.13;14.07;;;2.10;99.90;;;;;;5015315;28;20564;-83
2024/03/01 04:16:13;;;;;;;28.77;14.87;;;1.90;99.90;;;;;;5014914;28;20619;-83
2024/03/01 04:18:39;;;;;;;26.23;15.70;;;1.80;99.90;;;;;;5016314;28;20187;-84
2024/03/01 04:21:05;;;;;;;30.40;16.33;;;1.70;99.90;;;;;;5015132;28;20195;-83
2024/03/01 04:23:31;;;;;;;28.33;16.43;;;1.80;99.90;;;;;;5015145;28;20308;-83
2024/03/01 04:25:57;;;;;;;27.67;16.50;;;1.70;99.90;;;;;;5002287;28;20644;-82
2024/03/01 04:28:27;;;;;;;30.07;16.13;;;1.90;99.90;;;;;;5003753;28;20183;-83
2024/03/01 04:30:53;;;;;;;27.33;15.10;;;2.00;99.90;;;;;;5009855;28;20211;-83
2024/03/01 04:33:20;;;;;;;26.40;15.87;;;2.10;99.90;;;;;;5015086;28;20201;-83
2024/03/01 04:35:46;;;;;;;30.23;16.33;;;2.10;99.90;;;;;;5000314;28;20187;-82
2024/03/01 04:38:12;;;;;;;28.63;15.57;;;2.10;99.90;;;;;;5015015;28;20230;-83
2024/03/01 04:40:38;;;;;;;26.20;15.13;;;2.00;99.90;;;;;;5016148;28;20270;-83
2024/03/01 04:43:05;;;;;;;26.23;15.37;;;2.10;99.90;;;;;;5008904;28;22158;-84
2024/03/01 04:45:31;;;;;;;29.50;15.90;;;2.00;99.90;;;;;;5012623;28;20206;-82
2024/03/01 04:47:57;;;;;;;30.40;15.70;;;2.10;99.90;;;;;;5014364;28;20622;-84
2024/03/01 04:50:22;;;;;;;25.53;15.17;;;2.10;99.90;;;;;;5014311;28;20195;-83
2024/03/01 04:52:48;;;;;;;27.70;16.30;;;2.10;99.90;;;;;;5016037;28;20267;-83
2024/03/01 04:55:14;;;;;;;26.47;15.00;;;2.00;99.90;;;;;;5013942;28;20246;-83
2024/03/01 04:57:40;;;;;;;28.33;15.90;;;2.00;99.90;;;;;;5014184;28;20525;-83
2024/03/01 05:00:12;;;;;;;29.10;16.50;;;1.90;99.90;;;;;;5011364;28;20192;-83
2024/03/01 05:02:41;;;;;;;28.73;16.00;;;1.90;99.90;;;;;;5013237;28;20195;-83
2024/03/01 05:05:08;;;;;;;29.77;16.00;;;1.90;99.90;;;;;;5014377;28;20736;-83
2024/03/01 05:07:34;;;;;;;26.73;15.70;;;1.90;99.90;;;;;;5015509;28;20194;-83
2024/03/01 05:10:00;;;;;;;24.63;15.00;;;2.00;99.90;;;;;;5014068;28;20187;-82
2024/03/01 05:12:26;;;;;;;27.00;15.83;;;2.10;99.90;;;;;;5014192;28;20194;-82
2024/03/01 05:14:52;;;;;;;30.77;16.77;;;2.10;99.90;;;;;;5013977;28;20195;-83
2024/03/01 05:17:18;;;;;;;27.83;15.97;;;2.10;99.90;;;;;;5013759;28;20226;-82
2024/03/01 05:19:44;;;;;;;25.57;15.17;;;2.10;99.90;;;;;;5014010;28;20187;-83
2024/03/01 05:22:13;;;;;;;24.50;14.63;;;2.20;99.90;;;;;;5014249;28;20198;-83
2024/03/01 05:24:39;;;;;;;27.53;15.20;;;2.00;99.90;;;;;;5014053;28;20583;-84
2024/03/01 05:27:11;;;;;;;26.13;14.80;;;2.10;99.90;;;;;;5013937;28;20278;-83
2024/03/01 05:29:37;;;;;;;28.10;15.80;;;2.00;99.90;;;;;;5013748;28;20193;-83
2024/03/01 05:32:02;;;;;;;26.70;15.27;;;1.90;99.90;;;;;;5008471;28;20187;-82
2024/03/01 05:34:28;;;;;;;28.33;15.77;;;2.00;99.90;;;;;;5012913;28;20187;-83
2024/03/01 05:36:54;;;;;;;26.03;14.43;;;2.00;99.90;;;;;;5006734;28;20281;-83
2024/03/01 05:39:20;;;;;;;25.27;15.17;;;2.10;99.90;;;;;;5013474;28;20187;-82
2024/03/01 05:41:46;;;;;;;25.47;15.10;;;2.00;99.90;;;;;;5013918;28;20250;-83
2024/03/01 05:44:13;;;;;;;25.87;15.73;;;1.90;99.90;;;;;;5013706;28;20814;-83
2024/03/01 05:46:40;;;;;;;29.07;14.97;;;1.90;99.90;;;;;;5013210;28;20195;-83
2024/03/01 05:49:06;;;;;;;24.53;14.43;;;2.00;99.90;;;;;;5013606;28;20622;-83
2024/03/01 05:51:32;;;;;;;29.17;16.23;;;2.00;99.90;;;;;;5013454;28;20338;-82
2024/03/01 05:53:57;;;;;;;29.67;16.50;;;2.00;99.90;;;;;;5013459;28;20333;-83
2024/03/01 05:56:26;;;;;;;26.37;15.17;;;2.00;99.90;;;;;;5013345;28;20629;-83
2024/03/01 05:58:52;;;;;;;32.27;17.20;;;2.00;99.90;;;;;;5013330;28;20226;-84
2024/03/01 06:01:20;;;;;;;28.70;16.03;;;1.90;99.90;;;;;;5008001;28;20269;-84
2024/03/01 06:03:47;;;;;;;25.93;15.53;;;1.90;99.90;;;;;;5013534;28;20330;-84
2024/03/01 06:06:18;;;;;;;27.30;15.70;;;1.80;99.90;;;;;;5013330;28;20315;-83
2024/03/01 06:08:47;;;;;;;30.33;16.03;;;1.90;99.90;;;;;;5013083;28;20183;-84
2024/03/01 06:11:14;;;;;;;31.00;16.10;;;1.90;99.90;;;;;;5010516;28;20206;-83
2024/03/01 06:13:40;;;;;;;29.53;16.10;;;2.00;99.90;;;;;;5013261;28;20195;-83
2024/03/01 06:16:09;;;;;;;25.10;14.17;;;2.00;99.90;;;;;;5013033;28;20183;-82
2024/03/01 06:18:35;;;;;;;24.90;14.73;;;2.00;99.90;;;;;;5012982;28;20281;-83
2024/03/01 06:21:00;;;;;;;21.17;13.50;;;2.00;99.90;;;;;;5013413;28;20566;-83
2024/03/01 06:23:28;;;;;;;26.10;14.80;;;2.00;99.90;;;;;;5012977;28;20218;-83
2024/03/01 06:25:54;;;;;;;29.37;16.63;;;2.10;99.90;;;;;;5012412;28;20652;-84
2024/03/01 06:28:19;;;;;;;28.77;15.33;;;2.10;99.90;;;;;;5012891;28;20187;-83
2024/03/01 06:30:45;;;;;;;32.13;17.60;;;2.10;99.90;;;;;;5009180;28;20268;-84
2024/03/01 06:33:11;;;;;;;29.70;16.97;;;2.10;99.90;;;;;;5013010;28;20278;-83
2024/03/01 06:35:37;;;;;;;28.90;16.23;;;2.20;99.90;;;;;;5012978;28;20191;-84
2024/03/01 06:38:03;;;;;;;34.77;18.30;;;2.20;99.90;;;;;;5013929;28;20253;-83
2024/03/01 06:40:30;;;;;;;34.87;17.13;;;2.20;99.90;;;;;;5012653;28;20183;-83
2024/03/01 06:42:56;;;;;;;27.77;16.50;;;2.20;99.90;;;;;;5012676;28;20191;-84
2024/03/01 06:45:21;;;;;;;32.30;17.80;;;2.30;99.90;;;;;;5012360;28;20201;-83
2024/03/01 06:47:48;;;;;;;31.67;17.07;;;2.30;99.90;;;;;;5012562;28;20195;-82
2024/03/01 06:50:14;;;;;;;31.43;16.37;;;2.40;99.90;;;;;;5012606;28;20190;-83
2024/03/01 06:52:40;;;;;;;31.50;16.77;;;2.30;99.90;;;;;;5012571;28;20191;-83
2024/03/01 06:55:06;;;;;;;29.30;16.30;;;2.30;99.90;;;;;;5008651;28;20237;-82
2024/03/01 06:57:32;;;;;;;30.43;18.47;;;2.20;99.90;;;;;;5010809;28;20626;-85
2024/03/01 06:59:58;;;;;;;31.10;17.27;;;2.10;99.90;;;;;;5004090;28;20187;-84
2024/03/01 07:02:23;;;;;;;28.40;16.23;;;2.10;99.90;;;;;;5001160;28;20619;-83
2024/03/01 07:04:49;;;;;;;31.43;16.83;;;2.10;99.90;;;;;;5001895;28;20639;-83
2024/03/01 07:07:16;;;;;;;28.53;16.70;;;2.10;99.90;;;;;;5007977;28;20205;-83
2024/03/01 07:09:42;;;;;;;28.70;16.47;;;2.30;99.90;;;;;;5013461;28;20521;-83
2024/03/01 07:12:08;;;;;;;34.63;17.43;;;2.40;99.90;;;;;;5012350;28;20237;-83
2024/03/01 07:14:35;;;;;;;28.93;16.43;;;2.40;99.90;;;;;;5012367;28;20187;-84
2024/03/01 07:17:01;;;;;;;31.87;16.83;;;2.50;99.90;;;;;;5012182;28;20186;-83
2024/03/01 07:19:26;;;;;;;32.77;16.83;;;2.50;99.90;;;;;;5011250;28;20257;-83
2024/03/01 07:21:53;;;;;;;33.60;17.03;;;2.60;99.90;;;;;;5004960;28;20217;-84
2024/03/01 07:24:19;;;;;;;25.53;16.17;;;2.70;99.90;;;;;;5013482;28;20215;-84
2024/03/01 07:26:45;;;;;;;29.43;16.30;;;2.70;99.90;;;;;;5012069;28;20201;-84
2024/03/01 07:29:14;;;;;;;29.37;16.63;;;2.70;99.90;;;;;;5012260;28;20249;-84
2024/03/01 07:31:40;;;;;;;32.63;17.37;;;2.80;99.90;;;;;;5008100;28;20180;-83
2024/03/01 07:34:06;;;;;;;34.97;17.37;;;2.80;99.90;;;;;;5004715;28;20202;-83
2024/03/01 07:36:31;;;;;;;28.60;16.37;;;2.90;99.90;;;;;;4996729;28;20223;-84
2024/03/01 07:38:58;;;;;;;29.30;16.87;;;3.00;99.90;;;;;;4992640;28;20239;-84
2024/03/01 07:41:24;;;;;;;37.33;18.60;;;3.10;99.90;;;;;;5002674;28;20187;-84
2024/03/01 07:43:50;;;;;;;37.77;20.17;;;3.20;99.90;;;;;;5002249;28;20218;-85
2024/03/01 07:46:16;;;;;;;38.10;19.80;;;3.40;99.90;;;;;;5015843;28;20633;-84
2024/03/01 07:48:45;;;;;;;34.53;18.17;;;3.60;99.90;;;;;;5015654;28;20548;-85
2024/03/01 07:51:11;;;;;;;34.83;19.03;;;3.70;99.90;;;;;;5016094;28;20191;-83
2024/03/01 07:53:40;;;;;;;36.17;19.10;;;3.70;99.90;;;;;;5015926;28;20528;-85
2024/03/01 07:56:06;;;;;;;33.30;18.47;;;3.80;99.90;;;;;;5016036;28;20195;-85
2024/03/01 07:58:33;;;;;;;36.80;18.40;;;3.90;99.90;;;;;;5015714;28;20273;-84
2024/03/01 08:00:59;;;;;;;32.17;17.77;;;4.00;99.90;;;;;;5011706;28;20634;-84
2024/03/01 08:03:25;;;;;;;39.07;19.87;;;4.10;99.90;;;;;;5015655;28;20315;-84
2024/03/01 08:05:51;;;;;;;38.23;20.10;;;4.30;99.90;;;;;;5015556;28;20686;-84
2024/03/01 08:08:44;;;;;;;33.23;18.43;;;4.40;99.90;;;;;;5015454;28;20309;-84
2024/03/01 08:11:11;;;;;;;36.60;19.70;;;4.50;99.90;;;;;;5013890;28;20330;-84
2024/03/01 08:13:39;;;;;;;32.57;18.77;;;4.60;99.90;;;;;;5016814;28;20215;-85
2024/03/01 08:16:09;;;;;;;35.97;19.10;;;4.70;99.90;;;;;;5015550;28;20198;-84
2024/03/01 08:18:37;;;;;;;34.00;19.40;;;4.80;99.90;;;;;;5015542;28;20640;-84
2024/03/01 08:21:07;;;;;;;38.80;19.47;;;5.00;99.90;;;;;;5015778;28;20529;-85
2024/03/01 08:23:41;;;;;;;34.10;19.50;;;5.10;99.90;;;;;;5015303;28;20211;-83
2024/03/01 08:26:23;;;;;;;34.80;19.83;;;5.30;99.90;;;;;;5015388;28;20312;-85
2024/03/01 08:28:49;;;;;;;34.40;19.97;;;5.40;99.90;;;;;;5015241;28;20614;-85
2024/03/01 08:31:35;;;;;;;34.20;19.73;;;5.50;99.90;;;;;;5010072;28;20198;-84
2024/03/01 08:34:10;;;;;;;37.60;20.40;;;5.60;99.90;;;;;;5015153;28;20642;-84
2024/03/01 08:36:39;;;;;;;33.70;19.60;;;5.70;99.90;;;;;;5015179;28;20198;-84
2024/03/01 08:39:18;;;;;;;33.53;19.57;;;5.90;99.90;;;;;;5015007;28;20195;-85
2024/03/01 08:41:45;;;;;;;36.10;20.87;;;6.00;99.90;;;;;;5015040;28;20190;-85
2024/03/01 08:44:33;;;;;;;37.87;20.80;;;6.10;99.90;;;;;;5015045;28;20222;-85
2024/03/01 08:46:59;;;;;;;33.57;18.73;;;6.30;99.90;;;;;;5015044;28;20736;-85
2024/03/01 08:49:39;;;;;;;33.23;20.23;;;6.40;99.90;;;;;;5015474;28;20265;-85
2024/03/01 08:52:28;;;;;;;30.37;19.27;;;6.50;99.90;;;;;;5016288;28;20186;-85
2024/03/01 08:55:03;;;;;;;33.83;19.13;;;6.60;99.90;;;;;;5014997;28;20262;-84
2024/03/01 08:57:30;;;;;;;37.43;20.53;;;6.70;99.90;;;;;;5016150;28;20225;-85
2024/03/01 08:59:55;;;;;;;32.03;19.47;;;6.80;99.90;;;;;;5013127;28;20245;-86
2024/03/01 09:02:33;;;;;;;33.67;19.70;;;6.90;99.90;;;;;;5012517;28;20187;-85
2024/03/01 09:04:59;;;;;;;33.53;19.20;;;7.20;99.90;;;;;;5015022;28;20740;-85
2024/03/01 09:07:30;;;;;;;33.20;19.33;;;7.40;99.90;;;;;;5014677;28;20275;-85
2024/03/01 09:09:56;;;;;;;35.00;19.40;;;7.50;99.90;;;;;;5014607;28;20194;-88
2024/03/01 09:12:26;;;;;;;31.93;18.60;;;7.60;99.90;;;;;;5014783;28;20191;-88
2024/03/01 09:15:01;;;;;;;32.92;19.65;;;7.80;99.90;;;;;;5014757;28;20191;-86
2024/03/01 09:17:27;;;;;;;37.93;19.30;;;7.90;99.90;;;;;;5014760;28;20183;-86
2024/03/01 09:19:53;;;;;;;32.05;18.17;;;8.10;99.90;;;;;;5006592;28;20187;-86
2024/03/01 09:22:20;;;;;;;34.37;19.23;;;8.20;99.90;;;;;;5014495;28;20198;-85
2024/03/01 09:24:47;;;;;;;28.17;17.90;;;8.30;99.90;;;;;;5014415;28;20219;-85
2024/03/01 09:27:16;;;;;;;29.92;17.52;;;8.30;99.90;;;;;;5007666;28;20207;-85
2024/03/01 09:29:46;;;;;;;29.02;17.88;;;8.30;99.90;;;;;;5005564;28;20651;-86
2024/03/01 09:32:14;;;;;;;29.37;17.60;;;8.40;99.90;;;;;;5005526;28;20187;-86
2024/03/01 09:34:41;;;;;;;28.08;17.08;;;8.40;99.90;;;;;;4997761;28;20231;-85
2024/03/01 09:37:15;;;;;;;29.80;18.07;;;8.50;99.90;;;;;;5003632;28;20555;-86
2024/03/01 09:39:42;;;;;;;30.90;18.17;;;8.60;99.90;;;;;;5011318;28;20222;-84
2024/03/01 09:42:28;;;;;;;28.60;18.55;;;8.60;99.90;;;;;;4995013;28;20211;-84
2024/03/01 09:45:04;;;;;;;30.50;17.13;;;8.70;99.90;;;;;;5007213;28;20250;-84
2024/03/01 09:47:49;;;;;;;31.73;17.57;;;8.70;99.90;;;;;;5005116;28;20242;-84
2024/03/01 09:50:17;;;;;;;31.23;17.00;;;8.70;99.90;;;;;;4996441;28;20267;-84
2024/03/01 09:52:43;;;;;;;27.38;16.50;;;8.70;99.90;;;;;;4995205;28;20540;-86
2024/03/01 09:55:32;;;;;;;31.25;18.65;;;8.80;99.90;;;;;;5009471;28;20227;-85
2024/03/01 09:58:21;;;;;;;27.73;17.23;;;8.90;99.90;;;;;;4989818;28;20176;-85
2024/03/01 10:01:16;;;;;;;26.83;16.60;;;9.10;99.90;;;;;;4978374;28;20214;-84
2024/03/01 10:03:44;;;;;;;27.23;16.70;;;9.40;99.90;;;;;;5003201;28;20600;-86
2024/03/01 10:06:42;;;;;;;26.17;16.17;;;9.60;99.90;;;;;;4988671;28;20647;-86
2024/03/01 10:09:31;;;;;;;30.08;16.52;;;9.80;99.90;;;;;;4983048;28;20207;-85
2024/03/01 10:12:06;;;;;;;28.08;16.45;;;10.10;99.90;;;;;;4988629;28;20530;-87
2024/03/01 10:14:44;;;;;;;27.13;16.88;;;10.30;99.90;;;;;;5004381;28;20170;-86
2024/03/01 10:17:25;;;;;;;26.40;15.30;;;10.40;99.90;;;;;;4988345;28;20271;-85
2024/03/01 10:20:30;;;;;;;27.85;15.52;;;10.40;99.90;;;;;;4991554;28;20193;-86
2024/03/01 10:23:14;;;;;;;25.20;15.35;;;10.60;99.90;;;;;;4988093;28;20198;-85
2024/03/01 10:25:51;;;;;;;27.75;15.10;;;10.50;99.90;;;;;;4995034;28;20302;-87
2024/03/01 10:28:52;;;;;;;24.27;15.15;;;10.50;99.90;;;;;;5002349;28;20189;-88
2024/03/01 10:31:52;;;;;;;23.00;14.60;;;10.30;99.90;;;;;;4998681;28;20191;-87
2024/03/01 10:34:36;;;;;;;21.27;13.93;;;10.20;99.90;;;;;;4991280;28;20252;-90
2024/03/01 10:37:38;;;;;;;21.70;13.48;;;10.20;99.90;;;;;;4997054;28;20194;-86
2024/03/01 10:40:17;;;;;;;26.67;15.07;;;10.30;99.90;;;;;;4996890;28;20179;-85
2024/03/01 10:43:09;;;;;;;21.67;13.82;;;10.30;99.90;;;;;;4994554;28;20198;-85
2024/03/01 10:45:55;;;;;;;29.20;14.95;;;10.40;99.90;;;;;;4986733;28;20200;-85
2024/03/01 10:48:21;;;;;;;25.73;14.40;;;10.60;99.90;;;;;;4994289;28;20183;-88
2024/03/01 10:51:07;;;;;;;21.15;13.65;;;10.70;99.90;;;;;;4997858;28;20183;-89
2024/03/01 10:53:41;;;;;;;23.02;14.10;;;11.00;99.90;;;;;;4994919;28;20627;-88
2024/03/01 10:56:13;;;;;;;23.73;14.30;;;11.10;99.90;;;;;;4989300;28;20949;-89
2024/03/01 10:58:50;;;;;;;20.75;13.00;;;11.10;99.90;;;;;;5002485;28;20236;-88
2024/03/01 11:01:33;;;;;;;23.70;14.10;;;11.30;99.90;;;;;;4988625;28;20271;-89
2024/03/01 11:04:23;;;;;;;24.27;13.82;;;11.40;99.90;;;;;;4988096;28;20220;-85
2024/03/01 11:07:21;;;;;;;21.63;13.82;;;11.60;99.90;;;;;;4998080;28;20250;-88
2024/03/01 11:09:57;;;;;;;25.63;13.50;;;11.60;99.90;;;;;;4985355;28;20203;-89
2024/03/01 11:12:28;;;;;;;19.98;13.40;;;11.80;99.90;;;;;;5002826;28;20269;-88
2024/03/01 11:15:07;;;;;;;19.77;12.73;;;11.90;99.90;;;;;;5013257;28;20183;-89
2024/03/01 11:17:37;;;;;;;22.95;13.07;;;12.00;99.90;;;;;;5012664;28;20524;-88
2024/03/01 11:20:10;;;;;;;21.13;13.45;;;12.10;99.90;;;;;;5012983;28;20222;-89
2024/03/01 11:22:41;;;;;;;22.55;13.05;;;12.00;99.90;;;;;;5013060;28;20183;-89
2024/03/01 11:25:15;;;;;;;16.40;11.27;;;12.00;99.90;;;;;;5013991;28;20222;-90
2024/03/01 11:27:53;;;;;;;13.93;10.18;;;11.90;99.90;;;;;;5012660;28;20179;-90
2024/03/01 11:30:22;;;;;;;18.50;11.57;;;12.00;99.90;;;;;;5008212;28;20202;-89
2024/03/01 11:33:00;;;;;;;19.27;12.20;;;12.10;99.90;;;;;;4997159;28;20215;-90
2024/03/01 11:35:53;;;;;;;19.63;12.70;;;12.10;99.90;;;;;;5012748;28;20696;-89
2024/03/01 11:38:35;;;;;;;19.33;13.25;;;12.10;99.90;;;;;;5012902;28;20649;-89
2024/03/01 11:41:20;;;;;;;20.60;12.90;;;12.00;99.90;;;;;;5012737;28;20190;-89
2024/03/01 11:43:45;;;;;;;17.80;12.10;;;12.10;99.90;;;;;;5012581;28;20581;-89
2024/03/01 11:46:26;;;;;;;22.10;12.77;;;12.00;99.90;;;;;;5001284;28;20233;-86
2024/03/01 11:49:17;;;;;;;18.60;12.40;;;12.00;99.90;;;;;;4986773;28;20202;-88
2024/03/01 11:51:55;;;;;;;18.73;12.02;;;12.10;99.90;;;;;;5004151;28;20191;-89
2024/03/01 11:54:39;;;;;;;18.40;12.40;;;12.20;99.90;;;;;;5012374;28;20325;-89
2024/03/01 11:57:24;;;;;;;19.10;13.23;;;12.10;99.90;;;;;;5004819;28;20622;-89
2024/03/01 12:00:08;;;;;;;20.27;12.38;;;12.00;99.90;;;;;;5011710;28;20241;-86
2024/03/01 12:03:05;;;;;;;17.95;12.13;;;11.90;99.90;;;;;;5000560;28;20183;-86
2024/03/01 12:06:00;;;;;;;20.58;12.32;;;11.90;99.90;;;;;;5002164;28;20282;-86
2024/03/01 12:08:49;;;;;;;17.25;10.60;;;11.90;99.90;;;;;;5006831;28;20179;-88
2024/03/01 12:12:03;;;;;;;15.23;10.32;;;11.90;99.90;;;;;;5004068;28;20191;-88
2024/03/01 12:14:38;;;;;;;15.73;10.40;;;12.10;99.90;;;;;;4993464;28;20227;-89
2024/03/01 12:17:26;;;;;;;17.52;10.52;;;12.50;99.90;;;;;;4993432;28;20184;-87
2024/03/01 12:19:57;;;;;;;16.05;10.57;;;12.80;99.90;;;;;;4979253;28;20191;-87
2024/03/01 12:22:54;;;;;;;17.67;11.55;;;13.00;99.90;;;;;;5002366;28;20188;-86
2024/03/01 12:25:23;;;;;;;16.95;11.73;;;12.90;99.90;;;;;;4997374;28;20611;-89
2024/03/01 12:28:29;;;;;;;17.17;11.68;;;12.80;99.90;;;;;;5005245;28;20225;-89
2024/03/01 12:31:03;;;;;;;18.88;11.57;;;12.50;99.90;;;;;;4993379;28;20191;-90
2024/03/01 12:33:57;;;;;;;16.65;12.07;;;12.20;99.90;;;;;;4997046;28;20215;-89
2024/03/01 12:36:34;;;;;;;21.05;12.45;;;12.00;99.90;;;;;;4987429;28;20838;-89
2024/03/01 12:39:08;;;;;;;20.08;13.50;;;11.80;99.90;;;;;;4991488;28;20187;-89
2024/03/01 12:42:05;;;;;;;20.10;12.85;;;11.80;99.90;;;;;;4987536;28;20188;-86
2024/03/01 12:45:08;;;;;;;18.40;12.20;;;11.70;99.90;;;;;;4987049;28;20246;-86
2024/03/01 12:47:53;;;;;;;19.73;13.30;;;11.80;99.90;;;;;;4998257;28;20273;-87
2024/03/01 12:50:37;;;;;;;21.17;13.13;;;11.90;99.90;;;;;;5015526;28;20191;-86
2024/03/01 12:53:38;;;;;;;20.75;12.82;;;12.10;99.90;;;;;;5015431;28;20610;-88
2024/03/01 12:56:25;;;;;;;21.17;12.90;;;12.30;99.90;;;;;;5003940;28;20630;-90